createdAt,value
2018-03-15T00:00:30.949Z,993.82
2018-03-15T00:01:31.002Z,993.82
2018-03-15T00:02:31.057Z,993.82
2018-03-15T00:03:31.114Z,993.84
2018-03-15T00:04:31.172Z,993.83
2018-03-15T00:05:31.217Z,993.85
2018-03-15T00:06:31.272Z,993.88
2018-03-15T00:07:31.327Z,993.91
2018-03-15T00:08:31.411Z,993.89
2018-03-15T00:09:31.433Z,993.90
2018-03-15T00:10:31.486Z,993.88
2018-03-15T00:11:31.541Z,993.94
2018-03-15T00:12:31.594Z,993.92
2018-03-15T00:13:31.650Z,993.92
2018-03-15T00:14:31.702Z,993.92
2018-03-15T00:15:31.756Z,993.88
2018-03-15T00:16:31.809Z,993.88
2018-03-15T00:17:31.862Z,993.86
2018-03-15T00:18:31.920Z,993.87
2018-03-15T00:19:31.970Z,993.89
2018-03-15T00:20:32.023Z,993.87
2018-03-15T00:21:32.077Z,993.83
2018-03-15T00:22:32.131Z,993.82
2018-03-15T00:23:32.183Z,993.84
2018-03-15T00:24:32.242Z,993.80
2018-03-15T00:25:32.291Z,993.79
2018-03-15T00:26:32.343Z,993.75
2018-03-15T00:27:32.397Z,993.74
2018-03-15T00:28:32.452Z,993.77
2018-03-15T00:29:32.504Z,993.77
2018-03-15T00:30:32.559Z,993.82
2018-03-15T00:31:32.612Z,993.76
2018-03-15T00:32:32.665Z,993.73
2018-03-15T00:33:32.719Z,993.75
2018-03-15T00:34:32.772Z,993.73
2018-03-15T00:35:32.826Z,993.76
2018-03-15T00:36:32.880Z,993.74
2018-03-15T00:37:32.933Z,993.71
2018-03-15T00:38:32.986Z,993.75
2018-03-15T00:39:33.041Z,993.71
2018-03-15T00:40:33.095Z,993.71
2018-03-15T00:41:33.147Z,993.72
2018-03-15T00:42:33.199Z,993.74
2018-03-15T00:43:33.254Z,993.77
2018-03-15T00:44:33.307Z,993.76
2018-03-15T00:45:33.361Z,993.73
2018-03-15T00:46:33.413Z,993.77
2018-03-15T00:47:33.467Z,993.76
2018-03-15T00:48:33.521Z,993.78
2018-03-15T00:49:33.575Z,993.77
2018-03-15T00:50:33.628Z,993.75
2018-03-15T00:51:33.681Z,993.80
2018-03-15T00:52:33.885Z,993.74
2018-03-15T00:53:33.826Z,993.79
2018-03-15T00:54:33.844Z,993.76
2018-03-15T00:55:33.894Z,993.79
2018-03-15T00:56:33.948Z,993.67
2018-03-15T00:57:34.001Z,993.65
2018-03-15T00:58:34.054Z,993.63
2018-03-15T00:59:34.107Z,993.64
2018-03-15T01:00:34.160Z,993.60
2018-03-15T01:01:34.214Z,993.59
2018-03-15T01:02:34.268Z,993.55
2018-03-15T01:03:34.320Z,993.52
2018-03-15T01:04:34.378Z,993.52
2018-03-15T01:05:34.427Z,993.49
2018-03-15T01:06:34.480Z,993.47
2018-03-15T01:07:34.535Z,993.42
2018-03-15T01:08:34.588Z,993.43
2018-03-15T01:09:34.640Z,993.42
2018-03-15T01:10:34.693Z,993.42
2018-03-15T01:11:34.747Z,993.42
2018-03-15T01:12:34.801Z,993.41
2018-03-15T01:13:34.853Z,993.42
2018-03-15T01:14:34.906Z,993.39
2018-03-15T01:15:34.960Z,993.42
2018-03-15T01:16:35.014Z,993.41
2018-03-15T01:17:35.065Z,993.39
2018-03-15T01:18:35.120Z,993.43
2018-03-15T01:19:35.175Z,993.39
2018-03-15T01:20:35.227Z,993.38
2018-03-15T01:21:35.283Z,993.37
2018-03-15T01:22:35.333Z,993.33
2018-03-15T01:23:35.388Z,993.32
2018-03-15T01:24:35.441Z,993.33
2018-03-15T01:25:35.493Z,993.28
2018-03-15T01:26:35.546Z,993.24
2018-03-15T01:27:35.601Z,993.26
2018-03-15T01:28:35.657Z,993.23
2018-03-15T01:29:35.706Z,993.26
2018-03-15T01:30:35.761Z,993.19
2018-03-15T01:31:35.813Z,993.14
2018-03-15T01:32:35.868Z,993.16
2018-03-15T01:33:35.920Z,993.14
2018-03-15T01:34:35.973Z,993.08
2018-03-15T01:35:36.027Z,993.05
2018-03-15T01:36:36.080Z,993.07
2018-03-15T01:37:36.133Z,993.03
2018-03-15T01:38:36.186Z,993.05
2018-03-15T01:39:36.239Z,993.10
2018-03-15T01:40:36.293Z,993.04
2018-03-15T01:41:36.345Z,993.08
2018-03-15T01:42:36.399Z,993.03
2018-03-15T01:43:36.452Z,992.96
2018-03-15T01:44:36.505Z,992.95
2018-03-15T01:45:36.558Z,992.96
2018-03-15T01:46:36.611Z,992.94
2018-03-15T01:47:36.665Z,992.96
2018-03-15T01:48:36.718Z,992.94
2018-03-15T01:49:36.770Z,992.94
2018-03-15T01:50:36.824Z,992.94
2018-03-15T01:51:36.877Z,992.92
2018-03-15T01:52:36.931Z,992.94
2018-03-15T01:53:36.984Z,992.90
2018-03-15T01:54:37.035Z,992.92
2018-03-15T01:55:37.090Z,992.92
2018-03-15T01:56:37.142Z,992.89
2018-03-15T01:57:37.195Z,992.90
2018-03-15T01:58:37.249Z,992.87
2018-03-15T01:59:37.303Z,992.87
2018-03-15T02:00:37.356Z,992.81
2018-03-15T02:01:37.407Z,992.83
2018-03-15T02:02:37.460Z,992.83
2018-03-15T02:03:37.514Z,992.86
2018-03-15T02:04:37.567Z,992.85
2018-03-15T02:05:37.623Z,992.82
2018-03-15T02:06:37.671Z,992.83
2018-03-15T02:07:37.726Z,992.85
2018-03-15T02:08:37.779Z,992.85
2018-03-15T02:09:37.829Z,992.81
2018-03-15T02:10:38.034Z,992.80
2018-03-15T02:11:37.937Z,992.82
2018-03-15T02:12:37.990Z,992.79
2018-03-15T02:13:38.043Z,992.76
2018-03-15T02:14:38.096Z,992.72
2018-03-15T02:15:38.148Z,992.73
2018-03-15T02:16:38.203Z,992.68
2018-03-15T02:17:38.254Z,992.63
2018-03-15T02:18:38.308Z,992.64
2018-03-15T02:19:38.359Z,992.59
2018-03-15T02:20:38.412Z,992.58
2018-03-15T02:21:38.468Z,992.49
2018-03-15T02:22:38.519Z,992.51
2018-03-15T02:23:38.572Z,992.48
2018-03-15T02:24:38.627Z,992.46
2018-03-15T02:25:38.678Z,992.45
2018-03-15T02:26:39.333Z,992.44
2018-03-15T02:27:38.785Z,992.40
2018-03-15T02:28:38.838Z,992.41
2018-03-15T02:29:38.889Z,992.41
2018-03-15T02:30:38.944Z,992.37
2018-03-15T02:31:38.998Z,992.31
2018-03-15T02:32:39.050Z,992.31
2018-03-15T02:33:39.356Z,992.25
2018-03-15T02:34:39.153Z,992.19
2018-03-15T02:35:39.206Z,992.15
2018-03-15T02:36:39.259Z,992.13
2018-03-15T02:37:39.314Z,992.12
2018-03-15T02:38:39.366Z,992.10
2018-03-15T02:39:39.571Z,992.07
2018-03-15T02:40:39.474Z,992.05
2018-03-15T02:41:39.524Z,992.03
2018-03-15T02:42:39.577Z,992.02
2018-03-15T02:43:39.630Z,992.02
2018-03-15T02:44:39.683Z,992.01
2018-03-15T02:45:39.734Z,992.01
2018-03-15T02:46:39.788Z,992.04
2018-03-15T02:47:39.848Z,992.04
2018-03-15T02:48:39.895Z,992.00
2018-03-15T02:49:39.946Z,992.02
2018-03-15T02:50:39.999Z,992.03
2018-03-15T02:51:40.052Z,992.05
2018-03-15T02:52:40.104Z,992.08
2018-03-15T02:53:40.157Z,992.07
2018-03-15T02:54:40.209Z,992.07
2018-03-15T02:55:40.262Z,992.04
2018-03-15T02:56:40.316Z,992.01
2018-03-15T02:57:40.367Z,992.01
2018-03-15T02:58:40.420Z,991.97
2018-03-15T02:59:40.530Z,991.94
2018-03-15T03:00:40.526Z,991.91
2018-03-15T03:01:40.577Z,991.85
2018-03-15T03:02:40.632Z,991.85
2018-03-15T03:03:40.690Z,991.77
2018-03-15T03:04:40.736Z,991.79
2018-03-15T03:05:40.788Z,991.75
2018-03-15T03:06:40.840Z,991.76
2018-03-15T03:07:40.894Z,991.74
2018-03-15T03:08:40.947Z,991.72
2018-03-15T03:09:40.997Z,991.66
2018-03-15T03:10:41.051Z,991.65
2018-03-15T03:11:41.104Z,991.68
2018-03-15T03:12:41.156Z,991.72
2018-03-15T03:13:41.208Z,991.69
2018-03-15T03:14:41.264Z,991.70
2018-03-15T03:15:41.315Z,991.66
2018-03-15T03:16:41.368Z,991.68
2018-03-15T03:17:41.420Z,991.68
2018-03-15T03:18:41.473Z,991.66
2018-03-15T03:19:41.525Z,991.66
2018-03-15T03:20:41.579Z,991.65
2018-03-15T03:21:41.629Z,991.62
2018-03-15T03:22:41.682Z,991.60
2018-03-15T03:23:41.736Z,991.53
2018-03-15T03:24:41.939Z,991.52
2018-03-15T03:25:41.840Z,991.47
2018-03-15T03:26:41.892Z,991.47
2018-03-15T03:27:41.946Z,991.48
2018-03-15T03:28:41.999Z,991.44
2018-03-15T03:29:42.050Z,991.48
2018-03-15T03:30:42.106Z,991.45
2018-03-15T03:31:42.166Z,991.42
2018-03-15T03:32:42.209Z,991.44
2018-03-15T03:33:42.261Z,991.39
2018-03-15T03:34:42.312Z,991.39
2018-03-15T03:35:42.615Z,991.38
2018-03-15T03:36:42.419Z,991.37
2018-03-15T03:37:42.470Z,991.39
2018-03-15T03:38:42.528Z,991.38
2018-03-15T03:39:42.575Z,991.39
2018-03-15T03:40:42.629Z,991.30
2018-03-15T03:41:42.680Z,991.30
2018-03-15T03:42:42.732Z,991.28
2018-03-15T03:43:42.785Z,991.26
2018-03-15T03:44:42.838Z,991.21
2018-03-15T03:45:42.891Z,991.21
2018-03-15T03:46:42.944Z,991.14
2018-03-15T03:47:42.997Z,991.18
2018-03-15T03:48:43.050Z,991.17
2018-03-15T03:49:43.101Z,991.16
2018-03-15T03:50:43.175Z,991.14
2018-03-15T03:51:43.209Z,991.12
2018-03-15T03:52:43.260Z,991.18
2018-03-15T03:53:43.312Z,991.12
2018-03-15T03:54:43.364Z,991.11
2018-03-15T03:55:43.417Z,991.06
2018-03-15T03:56:43.472Z,991.05
2018-03-15T03:57:43.524Z,991.02
2018-03-15T03:58:43.574Z,991.07
2018-03-15T03:59:43.626Z,991.09
2018-03-15T04:00:43.681Z,991.08
2018-03-15T04:01:43.756Z,991.06
2018-03-15T04:02:43.783Z,991.06
2018-03-15T04:03:43.841Z,991.04
2018-03-15T04:04:43.889Z,991.06
2018-03-15T04:05:43.942Z,991.07
2018-03-15T04:06:43.995Z,991.04
2018-03-15T04:07:44.046Z,991.05
2018-03-15T04:08:44.103Z,991.05
2018-03-15T04:09:44.152Z,990.97
2018-03-15T04:10:44.205Z,990.96
2018-03-15T04:11:44.257Z,990.96
2018-03-15T04:12:44.309Z,990.90
2018-03-15T04:13:44.364Z,990.91
2018-03-15T04:14:44.416Z,990.84
2018-03-15T04:15:44.470Z,990.84
2018-03-15T04:16:44.520Z,990.83
2018-03-15T04:17:44.572Z,990.83
2018-03-15T04:18:44.624Z,990.82
2018-03-15T04:19:44.677Z,990.85
2018-03-15T04:20:44.730Z,990.86
2018-03-15T04:21:44.782Z,990.84
2018-03-15T04:22:44.834Z,990.81
2018-03-15T04:23:44.886Z,990.80
2018-03-15T04:24:44.941Z,990.76
2018-03-15T04:25:44.991Z,990.78
2018-03-15T04:26:45.045Z,990.74
2018-03-15T04:27:45.097Z,990.73
2018-03-15T04:28:45.150Z,990.66
2018-03-15T04:29:45.202Z,990.63
2018-03-15T04:30:45.254Z,990.60
2018-03-15T04:31:45.306Z,990.58
2018-03-15T04:32:45.360Z,990.56
2018-03-15T04:33:45.417Z,990.60
2018-03-15T04:34:45.463Z,990.54
2018-03-15T04:35:45.523Z,990.54
2018-03-15T04:36:45.570Z,990.50
2018-03-15T04:37:45.621Z,990.48
2018-03-15T04:38:45.677Z,990.46
2018-03-15T04:39:45.726Z,990.38
2018-03-15T04:40:45.778Z,990.41
2018-03-15T04:41:45.831Z,990.38
2018-03-15T04:42:45.883Z,990.37
2018-03-15T04:43:45.937Z,990.37
2018-03-15T04:44:45.990Z,990.38
2018-03-15T04:45:46.040Z,990.34
2018-03-15T04:46:46.094Z,990.35
2018-03-15T04:47:46.147Z,990.35
2018-03-15T04:48:46.200Z,990.34
2018-03-15T04:49:46.252Z,990.29
2018-03-15T04:50:46.311Z,990.32
2018-03-15T04:51:46.357Z,990.33
2018-03-15T04:52:46.409Z,990.33
2018-03-15T04:53:46.482Z,990.31
2018-03-15T04:54:46.513Z,990.32
2018-03-15T04:55:46.568Z,990.29
2018-03-15T04:56:46.619Z,990.25
2018-03-15T04:57:46.671Z,990.29
2018-03-15T04:58:46.724Z,990.26
2018-03-15T04:59:46.777Z,990.25
2018-03-15T05:00:46.865Z,990.23
2018-03-15T05:01:46.882Z,990.17
2018-03-15T05:02:46.934Z,990.17
2018-03-15T05:03:46.990Z,990.09
2018-03-15T05:04:47.038Z,990.05
2018-03-15T05:05:47.091Z,990.05
2018-03-15T05:06:47.143Z,990.03
2018-03-15T05:07:47.197Z,989.98
2018-03-15T05:08:47.250Z,989.98
2018-03-15T05:09:47.301Z,989.96
2018-03-15T05:10:47.354Z,989.97
2018-03-15T05:11:47.407Z,989.91
2018-03-15T05:12:47.461Z,989.94
2018-03-15T05:13:47.510Z,989.92
2018-03-15T05:14:47.563Z,989.93
2018-03-15T05:15:47.617Z,989.94
2018-03-15T05:16:47.670Z,989.90
2018-03-15T05:17:47.720Z,989.87
2018-03-15T05:18:47.774Z,989.85
2018-03-15T05:19:47.828Z,989.85
2018-03-15T05:20:47.879Z,989.88
2018-03-15T05:21:47.931Z,989.85
2018-03-15T05:22:47.988Z,989.82
2018-03-15T05:23:48.037Z,989.85
2018-03-15T05:24:48.088Z,989.86
2018-03-15T05:25:48.141Z,989.81
2018-03-15T05:26:48.193Z,989.81
2018-03-15T05:27:48.245Z,989.77
2018-03-15T05:28:48.300Z,989.77
2018-03-15T05:29:48.350Z,989.78
2018-03-15T05:30:48.403Z,989.77
2018-03-15T05:31:48.770Z,989.78
2018-03-15T05:32:48.514Z,989.77
2018-03-15T05:33:48.560Z,989.77
2018-03-15T05:34:48.888Z,989.73
2018-03-15T05:35:48.678Z,989.75
2018-03-15T05:36:48.717Z,989.74
2018-03-15T05:37:48.774Z,989.73
2018-03-15T05:38:48.823Z,989.70
2018-03-15T05:39:48.877Z,989.70
2018-03-15T05:40:48.928Z,989.69
2018-03-15T05:41:48.980Z,989.63
2018-03-15T05:42:49.032Z,989.60
2018-03-15T05:43:49.085Z,989.65
2018-03-15T05:44:49.161Z,989.64
2018-03-15T05:45:49.189Z,989.64
2018-03-15T05:46:49.243Z,989.64
2018-03-15T05:47:49.296Z,989.66
2018-03-15T05:48:49.348Z,989.64
2018-03-15T05:49:49.400Z,989.65
2018-03-15T05:50:49.453Z,989.68
2018-03-15T05:51:49.506Z,989.65
2018-03-15T05:52:49.560Z,989.65
2018-03-15T05:53:49.610Z,989.63
2018-03-15T05:54:49.663Z,989.66
2018-03-15T05:55:49.717Z,989.65
2018-03-15T05:56:49.770Z,989.69
2018-03-15T05:57:49.856Z,989.66
2018-03-15T05:58:49.876Z,989.70
2018-03-15T05:59:49.954Z,989.64
2018-03-15T06:00:49.985Z,989.63
2018-03-15T06:01:50.053Z,989.61
2018-03-15T06:02:50.085Z,989.60
2018-03-15T06:03:50.138Z,989.61
2018-03-15T06:04:50.442Z,989.61
2018-03-15T06:05:50.243Z,989.60
2018-03-15T06:06:50.296Z,989.58
2018-03-15T06:07:50.350Z,989.63
2018-03-15T06:08:50.402Z,989.54
2018-03-15T06:09:50.457Z,989.56
2018-03-15T06:10:50.506Z,989.54
2018-03-15T06:11:50.558Z,989.53
2018-03-15T06:12:50.613Z,989.51
2018-03-15T06:13:50.682Z,989.47
2018-03-15T06:14:50.718Z,989.52
2018-03-15T06:15:50.924Z,989.51
2018-03-15T06:16:50.824Z,989.52
2018-03-15T06:17:50.876Z,989.48
2018-03-15T06:18:50.929Z,989.47
2018-03-15T06:19:50.982Z,989.49
2018-03-15T06:20:51.034Z,989.49
2018-03-15T06:21:51.089Z,989.45
2018-03-15T06:22:51.143Z,989.47
2018-03-15T06:23:51.193Z,989.42
2018-03-15T06:24:51.246Z,989.40
2018-03-15T06:25:51.297Z,989.40
2018-03-15T06:26:51.351Z,989.38
2018-03-15T06:27:51.405Z,989.37
2018-03-15T06:28:51.504Z,989.33
2018-03-15T06:29:51.510Z,989.35
2018-03-15T06:30:51.566Z,989.32
2018-03-15T06:31:51.616Z,989.33
2018-03-15T06:32:52.325Z,989.36
2018-03-15T06:33:51.721Z,989.35
2018-03-15T06:34:51.791Z,989.37
2018-03-15T06:35:52.137Z,989.32
2018-03-15T06:36:51.880Z,989.33
2018-03-15T06:37:51.933Z,989.34
2018-03-15T06:38:51.989Z,989.30
2018-03-15T06:39:52.039Z,989.32
2018-03-15T06:40:52.093Z,989.33
2018-03-15T06:41:52.148Z,989.33
2018-03-15T06:42:52.198Z,989.35
2018-03-15T06:43:52.253Z,989.37
2018-03-15T06:44:52.305Z,989.34
2018-03-15T06:45:52.357Z,989.30
2018-03-15T06:46:52.411Z,989.31
2018-03-15T06:47:52.465Z,989.32
2018-03-15T06:48:52.520Z,989.31
2018-03-15T06:49:52.570Z,989.27
2018-03-15T06:50:52.624Z,989.28
2018-03-15T06:51:52.676Z,989.25
2018-03-15T06:52:52.732Z,989.26
2018-03-15T06:53:52.785Z,989.23
2018-03-15T06:54:52.837Z,989.23
2018-03-15T06:55:52.892Z,989.18
2018-03-15T06:56:52.945Z,989.22
2018-03-15T06:57:52.998Z,989.23
2018-03-15T06:58:53.054Z,989.24
2018-03-15T06:59:53.187Z,989.22
2018-03-15T07:00:53.159Z,989.22
2018-03-15T07:01:53.212Z,989.21
2018-03-15T07:02:53.268Z,989.17
2018-03-15T07:03:53.363Z,989.21
2018-03-15T07:04:53.374Z,989.19
2018-03-15T07:05:53.737Z,989.17
2018-03-15T07:06:53.492Z,989.17
2018-03-15T07:07:53.535Z,989.17
2018-03-15T07:08:53.589Z,989.23
2018-03-15T07:09:53.642Z,989.21
2018-03-15T07:10:53.697Z,989.21
2018-03-15T07:11:53.750Z,989.22
2018-03-15T07:12:53.805Z,989.19
2018-03-15T07:13:53.862Z,989.21
2018-03-15T07:14:53.912Z,989.18
2018-03-15T07:15:53.968Z,989.22
2018-03-15T07:16:54.022Z,989.21
2018-03-15T07:17:54.225Z,989.23
2018-03-15T07:18:54.128Z,989.21
2018-03-15T07:19:54.183Z,989.23
2018-03-15T07:20:54.240Z,989.21
2018-03-15T07:21:54.292Z,989.23
2018-03-15T07:22:54.350Z,989.19
2018-03-15T07:23:54.402Z,989.15
2018-03-15T07:24:54.457Z,989.17
2018-03-15T07:25:54.514Z,989.22
2018-03-15T07:26:54.574Z,989.16
2018-03-15T07:27:54.619Z,989.17
2018-03-15T07:28:54.675Z,989.17
2018-03-15T07:29:54.732Z,989.19
2018-03-15T07:30:54.784Z,989.20
2018-03-15T07:31:54.836Z,989.15
2018-03-15T07:32:54.893Z,989.15
2018-03-15T07:33:54.945Z,989.17
2018-03-15T07:34:55.001Z,989.17
2018-03-15T07:35:55.056Z,989.15
2018-03-15T07:36:55.111Z,989.12
2018-03-15T07:37:55.179Z,989.13
2018-03-15T07:38:55.259Z,989.08
2018-03-15T07:39:55.275Z,989.07
2018-03-15T07:40:55.330Z,989.07
2018-03-15T07:41:55.383Z,989.05
2018-03-15T07:42:55.440Z,989.12
2018-03-15T07:43:55.496Z,989.08
2018-03-15T07:44:55.549Z,989.07
2018-03-15T07:45:55.606Z,989.04
2018-03-15T07:46:55.660Z,989.05
2018-03-15T07:47:55.715Z,989.05
2018-03-15T07:48:55.774Z,989.00
2018-03-15T07:49:55.827Z,988.97
2018-03-15T07:50:55.882Z,988.99
2018-03-15T07:51:55.939Z,988.97
2018-03-15T07:52:55.994Z,988.92
2018-03-15T07:53:56.050Z,988.97
2018-03-15T07:54:56.110Z,989.00
2018-03-15T07:55:56.165Z,988.99
2018-03-15T07:56:56.219Z,989.00
2018-03-15T07:57:57.034Z,988.95
2018-03-15T07:58:56.330Z,988.96
2018-03-15T07:59:56.385Z,988.98
2018-03-15T08:00:56.441Z,988.96
2018-03-15T08:01:56.497Z,988.90
2018-03-15T08:02:56.553Z,988.92
2018-03-15T08:03:56.610Z,988.95
2018-03-15T08:04:56.667Z,988.93
2018-03-15T08:05:56.721Z,988.92
2018-03-15T08:06:56.781Z,988.93
2018-03-15T08:07:56.836Z,988.99
2018-03-15T08:08:57.043Z,988.96
2018-03-15T08:09:56.946Z,988.95
2018-03-15T08:10:57.004Z,988.94
2018-03-15T08:11:57.062Z,989.00
2018-03-15T08:12:57.118Z,988.97
2018-03-15T08:13:57.175Z,989.04
2018-03-15T08:14:57.232Z,988.97
2018-03-15T08:15:57.293Z,988.99
2018-03-15T08:16:57.509Z,988.93
2018-03-15T08:17:57.402Z,988.88
2018-03-15T08:18:57.458Z,988.91
2018-03-15T08:19:57.552Z,988.90
2018-03-15T08:20:57.611Z,988.88
2018-03-15T08:21:57.630Z,988.93
2018-03-15T08:22:57.684Z,988.91
2018-03-15T08:23:57.746Z,988.92
2018-03-15T08:24:57.803Z,988.85
2018-03-15T08:25:57.855Z,988.85
2018-03-15T08:26:57.914Z,988.89
2018-03-15T08:27:57.972Z,988.84
2018-03-15T08:28:58.027Z,988.79
2018-03-15T08:29:58.088Z,988.70
2018-03-15T08:30:58.148Z,988.74
2018-03-15T08:31:58.200Z,988.71
2018-03-15T08:32:58.257Z,988.67
2018-03-15T08:33:58.313Z,988.65
2018-03-15T08:34:58.370Z,988.66
2018-03-15T08:35:58.428Z,988.64
2018-03-15T08:36:58.486Z,988.63
2018-03-15T08:37:58.543Z,988.60
2018-03-15T08:38:58.601Z,988.59
2018-03-15T08:39:58.658Z,988.56
2018-03-15T08:40:58.723Z,988.55
2018-03-15T08:41:58.773Z,988.52
2018-03-15T08:42:58.871Z,988.52
2018-03-15T08:43:58.892Z,988.47
2018-03-15T08:44:58.945Z,988.48
2018-03-15T08:45:59.004Z,988.47
2018-03-15T08:46:59.091Z,988.49
2018-03-15T08:47:59.924Z,988.49
2018-03-15T08:48:59.177Z,988.44
2018-03-15T08:49:59.235Z,988.53
2018-03-15T08:50:59.293Z,988.47
2018-03-15T08:51:59.351Z,988.48
2018-03-15T08:52:59.408Z,988.48
2018-03-15T08:53:59.466Z,988.49
2018-03-15T08:54:59.525Z,988.46
2018-03-15T08:55:59.586Z,988.45
2018-03-15T08:56:59.667Z,988.44
2018-03-15T08:57:59.696Z,988.45
2018-03-15T08:58:59.755Z,988.43
2018-03-15T08:59:59.817Z,988.35
2018-03-15T09:00:59.873Z,988.35
2018-03-15T09:01:59.928Z,988.33
2018-03-15T09:02:59.987Z,988.31
2018-03-15T09:04:00.046Z,988.29
2018-03-15T09:05:00.107Z,988.29
2018-03-15T09:06:00.267Z,988.27
2018-03-15T09:07:00.221Z,988.27
2018-03-15T09:08:00.278Z,988.34
2018-03-15T09:09:00.440Z,988.34
2018-03-15T09:10:00.399Z,988.33
2018-03-15T09:11:00.491Z,988.28
2018-03-15T09:12:00.610Z,988.29
2018-03-15T09:13:01.509Z,988.29
2018-03-15T09:14:00.731Z,988.23
2018-03-15T09:15:00.688Z,988.26
2018-03-15T09:16:00.746Z,988.28
2018-03-15T09:17:00.823Z,988.29
2018-03-15T09:18:00.860Z,988.29
2018-03-15T09:19:00.924Z,988.27
2018-03-15T09:20:00.979Z,988.25
2018-03-15T09:21:01.039Z,988.27
2018-03-15T09:22:01.099Z,988.28
2018-03-15T09:23:01.156Z,988.25
2018-03-15T09:24:01.214Z,988.20
2018-03-15T09:25:01.272Z,988.20
2018-03-15T09:26:01.332Z,988.20
2018-03-15T09:27:02.008Z,988.20
2018-03-15T09:28:01.449Z,988.19
2018-03-15T09:29:01.562Z,988.17
2018-03-15T09:30:01.568Z,988.16
2018-03-15T09:31:02.035Z,988.17
2018-03-15T09:32:02.365Z,988.15
2018-03-15T09:33:01.744Z,988.15
2018-03-15T09:34:01.803Z,988.17
2018-03-15T09:35:01.862Z,988.22
2018-03-15T09:36:01.922Z,988.19
2018-03-15T09:37:01.982Z,988.19
2018-03-15T09:38:02.038Z,988.16
2018-03-15T09:39:02.100Z,988.13
2018-03-15T09:40:02.159Z,988.12
2018-03-15T09:41:02.218Z,988.14
2018-03-15T09:42:02.279Z,988.13
2018-03-15T09:43:02.340Z,988.08
2018-03-15T09:44:02.403Z,988.07
2018-03-15T09:45:02.458Z,988.06
2018-03-15T09:46:02.546Z,988.08
2018-03-15T09:47:02.576Z,988.05
2018-03-15T09:48:03.009Z,988.04
2018-03-15T09:49:02.695Z,988.02
2018-03-15T09:50:02.756Z,987.99
2018-03-15T09:51:02.964Z,988.05
2018-03-15T09:52:02.890Z,988.00
2018-03-15T09:53:02.933Z,987.97
2018-03-15T09:54:02.994Z,987.93
2018-03-15T09:55:03.054Z,987.95
2018-03-15T09:56:03.114Z,987.92
2018-03-15T09:57:03.175Z,987.96
2018-03-15T09:58:03.232Z,988.01
2018-03-15T09:59:03.293Z,987.96
2018-03-15T10:00:03.354Z,987.92
2018-03-15T10:01:03.414Z,987.94
2018-03-15T10:02:03.474Z,987.88
2018-03-15T10:03:03.531Z,987.83
2018-03-15T10:04:03.632Z,987.84
2018-03-15T10:05:03.653Z,987.85
2018-03-15T10:06:03.712Z,987.79
2018-03-15T10:07:03.793Z,987.78
2018-03-15T10:08:03.833Z,987.82
2018-03-15T10:09:03.940Z,987.81
2018-03-15T10:10:03.952Z,987.76
2018-03-15T10:11:04.015Z,987.69
2018-03-15T10:12:04.819Z,987.69
2018-03-15T10:13:04.182Z,987.68
2018-03-15T10:14:04.194Z,987.65
2018-03-15T10:15:04.254Z,987.66
2018-03-15T10:16:04.315Z,987.65
2018-03-15T10:17:04.375Z,987.55
2018-03-15T10:18:04.443Z,987.53
2018-03-15T10:19:04.497Z,987.47
2018-03-15T10:20:04.556Z,987.50
2018-03-15T10:21:04.616Z,987.49
2018-03-15T10:22:04.676Z,987.49
2018-03-15T10:23:04.785Z,987.45
2018-03-15T10:24:04.852Z,987.50
2018-03-15T10:25:13.609Z,987.50
2018-03-15T10:26:04.965Z,987.49
2018-03-15T10:27:04.980Z,987.46
2018-03-15T10:28:05.047Z,987.50
2018-03-15T10:29:05.101Z,987.44
2018-03-15T10:30:05.160Z,987.45
2018-03-15T10:31:05.569Z,987.42
2018-03-15T10:32:05.287Z,987.43
2018-03-15T10:33:05.344Z,987.43
2018-03-15T10:34:05.404Z,987.37
2018-03-15T10:35:05.465Z,987.40
2018-03-15T10:36:05.524Z,987.36
2018-03-15T10:37:05.736Z,987.40
2018-03-15T10:38:05.646Z,987.40
2018-03-15T10:39:05.711Z,987.38
2018-03-15T10:40:05.768Z,987.39
2018-03-15T10:41:05.829Z,987.38
2018-03-15T10:42:05.891Z,987.42
2018-03-15T10:43:05.953Z,987.38
2018-03-15T10:44:06.014Z,987.35
2018-03-15T10:45:06.070Z,987.40
2018-03-15T10:46:06.133Z,987.46
2018-03-15T10:47:06.190Z,987.51
2018-03-15T10:48:06.253Z,987.54
2018-03-15T10:49:06.321Z,987.55
2018-03-15T10:50:06.376Z,987.56
2018-03-15T10:51:06.435Z,987.57
2018-03-15T10:52:06.496Z,987.56
2018-03-15T10:53:06.556Z,987.62
2018-03-15T10:54:06.619Z,987.66
2018-03-15T10:55:06.680Z,987.66
2018-03-15T10:56:06.737Z,987.71
2018-03-15T10:57:06.799Z,987.74
2018-03-15T10:58:06.860Z,987.78
2018-03-15T10:59:07.221Z,987.73
2018-03-15T11:00:06.981Z,987.82
2018-03-15T11:01:07.041Z,987.81
2018-03-15T11:02:07.102Z,987.80
2018-03-15T11:03:07.164Z,987.71
2018-03-15T11:04:07.226Z,987.71
2018-03-15T11:05:07.286Z,987.69
2018-03-15T11:06:07.346Z,987.67
2018-03-15T11:07:07.413Z,987.64
2018-03-15T11:08:07.469Z,987.61
2018-03-15T11:09:07.560Z,987.57
2018-03-15T11:10:07.742Z,987.59
2018-03-15T11:11:07.655Z,987.58
2018-03-15T11:12:07.744Z,987.57
2018-03-15T11:13:07.777Z,987.59
2018-03-15T11:14:07.840Z,987.53
2018-03-15T11:15:07.901Z,987.54
2018-03-15T11:16:07.962Z,987.52
2018-03-15T11:17:08.026Z,987.49
2018-03-15T11:18:08.128Z,987.52
2018-03-15T11:19:08.149Z,987.49
2018-03-15T11:20:08.211Z,987.47
2018-03-15T11:21:08.273Z,987.51
2018-03-15T11:22:08.334Z,987.40
2018-03-15T11:23:08.397Z,987.36
2018-03-15T11:24:08.461Z,987.33
2018-03-15T11:25:08.524Z,987.29
2018-03-15T11:26:08.585Z,987.26
2018-03-15T11:27:08.645Z,987.26
2018-03-15T11:28:08.711Z,987.21
2018-03-15T11:29:08.773Z,987.20
2018-03-15T11:30:08.839Z,987.21
2018-03-15T11:31:08.928Z,987.19
2018-03-15T11:32:08.962Z,987.17
2018-03-15T11:33:09.170Z,987.17
2018-03-15T11:34:09.420Z,987.16
2018-03-15T11:35:09.146Z,987.18
2018-03-15T11:36:09.208Z,987.14
2018-03-15T11:37:09.272Z,987.16
2018-03-15T11:38:09.334Z,987.16
2018-03-15T11:39:09.395Z,987.15
2018-03-15T11:40:09.457Z,987.19
2018-03-15T11:41:09.520Z,987.16
2018-03-15T11:42:09.581Z,987.18
2018-03-15T11:43:09.644Z,987.17
2018-03-15T11:44:09.705Z,987.11
2018-03-15T11:45:09.769Z,987.05
2018-03-15T11:46:09.829Z,987.06
2018-03-15T11:47:09.892Z,986.99
2018-03-15T11:48:09.956Z,986.99
2018-03-15T11:49:10.019Z,986.99
2018-03-15T11:50:10.078Z,987.03
2018-03-15T11:51:10.143Z,987.01
2018-03-15T11:52:10.204Z,987.05
2018-03-15T11:53:10.267Z,987.09
2018-03-15T11:54:10.328Z,987.08
2018-03-15T11:55:10.392Z,987.07
2018-03-15T11:56:10.481Z,987.02
2018-03-15T11:57:10.514Z,987.02
2018-03-15T11:58:10.575Z,987.00
2018-03-15T11:59:10.646Z,987.01
2018-03-15T12:00:10.700Z,987.02
2018-03-15T12:01:10.762Z,986.96
2018-03-15T12:02:10.823Z,986.93
2018-03-15T12:03:10.887Z,986.99
2018-03-15T12:04:10.947Z,986.97
2018-03-15T12:05:11.014Z,986.92
2018-03-15T12:06:11.076Z,986.92
2018-03-15T12:07:11.133Z,986.89
2018-03-15T12:08:11.194Z,986.88
2018-03-15T12:09:11.256Z,986.81
2018-03-15T12:10:11.316Z,986.82
2018-03-15T12:11:11.380Z,986.78
2018-03-15T12:12:11.440Z,986.77
2018-03-15T12:13:11.503Z,986.74
2018-03-15T12:14:12.218Z,986.77
2018-03-15T12:15:12.457Z,986.73
2018-03-15T12:16:11.685Z,986.71
2018-03-15T12:17:11.753Z,986.64
2018-03-15T12:18:11.809Z,986.57
2018-03-15T12:19:11.871Z,986.54
2018-03-15T12:20:11.933Z,986.49
2018-03-15T12:21:11.994Z,986.49
2018-03-15T12:22:12.056Z,986.44
2018-03-15T12:23:12.117Z,986.43
2018-03-15T12:24:12.183Z,986.40
2018-03-15T12:25:12.599Z,986.36
2018-03-15T12:26:12.300Z,986.40
2018-03-15T12:27:12.363Z,986.28
2018-03-15T12:28:12.424Z,986.22
2018-03-15T12:29:12.485Z,986.24